Aérodrome :
LOGIN :

S'inscrire | Disclaimer

   EN    FR    IT 

 










Légende :    VFR   VFR Marginal   IFR   IFR Intensif   IFR Très Intensif
Visi : 
Plafond : 
>= 8 km
>= 3000ft
5 à 8 km
1000 à 3000 ft
1500m à 5 km
500 à 1000 ft
800 à 1500m
200 à 500 ft
< 800m
< 200 ft
Symboles :   Orages  Brouillard  Fortes neiges  Fortes précipitations  Vent > 20 kt
SIGMETs :   Divers  Orages  Givrage  Turbulence  Onde Orograph.  Cendres Volcan.







- Altitude de l'aérodrome : 63 ft
- Code IATA : BZM


EHWO - Woensdrecht Airbase

DERNIER METAR :
  • 240425Z AUTO 03005KT 350V050 9999 OVC360 03/02 Q1029 BLU

METARs EXPIRÉS :
  • 240355Z AUTO 04004KT 9000 BR OVC370 02/01 Q1029 BLU
  • 240325Z AUTO 02005KT 350V050 9999 FEW017 SCT029 OVC043 04/03 Q1030 BLU
  • 240302Z AUTO 02005KT 340V050 9999 SCT017 SCT087 OVC360 04/02 Q1030 WHT
  • 240255Z AUTO 02006KT 340V050 9999 FEW044 SCT086 OVC360 04/03 Q1030 BLU
  • 240225Z AUTO 02005KT 340V050 9999 OVC043 04/03 Q1030 BLU
  • 240155Z AUTO 03005KT 340V060 9999 OVC043 05/03 Q1030 BLU
  • 240129Z AUTO 03006KT 340V070 9999 FEW023 OVC044 05/03 Q1030 BLU

Prévision TAF périmée.
Pas de NOTAMs connus pour ce terrain.



MET'MAP, la Météo Aéronautique d'un coup d'oeil ! - Copyright ORBIFLY Décembre 2007 - Disclaimer

ORBIFLY MET'MAP TEAM :

Programmation & Développement : Alexandra Zaïnal
Conception & Développement : Baudouin d'Aumeries
Co-Programmation & Développement : Marc-Olivier Méhu
Soutien technique & logistique : Manuel Goepfert

Contact : metmap@orbifly.com




SOURCES & CREDITS :

   NOAA